Aérodrome :
LOGIN :

S'inscrire | Disclaimer

   EN    FR    IT 

 










Légende :    VFR   VFR Marginal   IFR   IFR Intensif   IFR Très Intensif
Visi : 
Plafond : 
>= 8 km
>= 3000ft
5 à 8 km
1000 à 3000 ft
1500m à 5 km
500 à 1000 ft
800 à 1500m
200 à 500 ft
< 800m
< 200 ft
Symboles :   Orages  Brouillard  Fortes neiges  Fortes précipitations  Vent > 20 kt
SIGMETs :   Divers  Orages  Givrage  Turbulence  Onde Orograph.  Cendres Volcan.







- Altitude de l'aérodrome : 1 ft
- Voir les cartes d'approche


EGCK - Caernarfon

DERNIER METAR :
  • 131250Z 28028KT 9999 FEW016 BKN028 BKN043 08/02 Q0991

METARs EXPIRÉS :
  • 131220Z 27025G35KT 9999 -RA FEW017 SCT024 BKN037 08/03 Q0992
  • 131150Z 27028KT 9999 -RA FEW008 BKN028 08/03 Q0991
  • 131120Z 28024G39KT 9999 -RA SCT008 BKN017 BKN026 07/05 Q0992
  • 131050Z 25028KT 9999 RA SCT007 BKN017 BKN024 08/06 Q0991
  • 131020Z 23020G31KT 6000 RA FEW006 BKN014 BKN025 09/07 Q0992

TAF TAF EGCK
Valide du 13 à 12h jusqu'au 13 à 21h UTC


131102Z 1312/1321 28025G35KT 9999 SCT016
TEMPO 1312/1314 7000 SHRA BKN012
PROB30
TEMPO 1312/1313 3000 +SHRAGS BKN009 BKN020CB
PROB30
TEMPO 1316/1321 2000 +SHRAGS BKN004 BKN020CB
Pas de NOTAMs connus pour ce terrain.



MET'MAP, la Météo Aéronautique d'un coup d'oeil ! - Copyright ORBIFLY Décembre 2007 - Disclaimer

ORBIFLY MET'MAP TEAM :

Programmation & Développement : Alexandra Zaïnal
Conception & Développement : Baudouin d'Aumeries
Co-Programmation & Développement : Marc-Olivier Méhu
Soutien technique & logistique : Manuel Goepfert

Contact : metmap@orbifly.com




SOURCES & CREDITS :

   NOAA